DIYO

Yamoussoukro International Airport

Airport
ICAO code
DIYO
IATA Code
ASK
Summary
ICAO Region
AFI
ICAO Territory
Location

Yamoussoukro, Yamoussoukro district

Serving
Yamoussoukro
Elevation
699 ft
Coordinates
6° 54' 17" N , 5° 21' 44" W
KCC
Aw
Metar
Observation
DIYO 112000Z 22004KT CAVOK 26/22 Q1013 NOSIG
Station
Yamoussoukro
Date/Time
2022-08-11 20:00:00
Wind direction
220°
Wind speed
04 kts
Lowest cloud amount
clouds and visibility OK
Temperature
26°C
Dew point
22°C
Humidity
78%
QNH
1013 hPa
Weather condition
n/a

Yamoussoukro International Airport is a regional airport serving Yamoussoukro in Côte d'Ivoire.

Climatology

Tropical Savannah climate (Köppen climate classification Aw)

Runways

Designator Length Width Surface Rops
5/23 3000 45 ASP No/No

Airport map

Aerial View

SKYbrary Partners:

Safety knowledge contributed by: